Hovedside
METAR-TAF:

METAR-TAF

Lufthavner :

Lakselv lufthavn. Banak

Lakselv, Norge

breddegrad: 70-04N, lengdegrad: 024-59E, høyde over havet: 0 m

Gjeldene værobservasjon

Denne rapporten ble laget for 36 minutter siden, klokken 06:20 UTC
Vind 13 kt fra Nord-nordvest
Temperatur -3°C
Luftfuktighet 74%
Trykk 996 hPa
Sikt 10 km eller mer
Få skyer i en høyde av 1700 ft
Spredte skyer i en høyde av 3300 ft
Brutte skyer i en høyde av 4400 ft

METAR: ENNA 010620Z 34013KT 9999 FEW017 SCT033 BKN044 M03/M07 Q0996 RMK WIND 1800FT 35010KT

Tid: 08:56 (06:56 UTC)

Varsel

Varsel gyldig fra 01. klokken 06 UTC til 02. klokken 06 UTC
Vind 9 kt fra Nord-nordøst
Sikt 10 km eller mer
Få skyer i en høyde av 1200 ft
Spredte skyer i en høyde av 3500 ft
Sannsynlighet 30% :
Midlertidig
fra 01. klokken 06 UTC til 01. klokken 18 UTC
Sikt: 2000 m
i en høyde av 900 ft
snøbyger

TAF: ENNA 0106/0206 02009KT 9999 FEW012 SCT035 PROB30 TEMPO 0106/0118 2000 SHSN VV009

Værobservasjoner og værvarsel for over 4000 flyplasser (METAR- og TAF-rapporter).

Tilgjengelige stasjoner er representert av de røde og gule prikkene på kartet.

Hold musepekeren over prikken for å se navnet på stasjonen.

Klikk så for å se værobservasjoner og -varsler.

For å forandre kartet kan du klikke på den grønne knappen med svart kryss for å zoome inn, på den grønne knappen med strek for å zoome ut, eller på de grønne pilene for å se tilstøtende kart.


METAR-TAF: